Time;durP1;ratioP1;P1;durP2;ratioP2;P2;SDS_P1;SDS_P2;PMS_P1;PMS_P2;Temp;Humidity;BMP_temperature;BMP_pressure;BME280_temperature;BME280_humidity;BME280_pressure;Samples;Min_cycle;Max_cycle;Signal;HPM_P1;HPM_P2
2021/10/11 00:01:01;;;;;;;13.53;10.03;;;;;;;6.78;84.98;97587.75;5056510;28;20208;-67
2021/10/11 00:03:27;;;;;;;13.63;9.80;;;;;;;6.89;84.46;97589.09;5074479;28;20188;-67
2021/10/11 00:05:52;;;;;;;18.97;10.10;;;;;;;6.94;83.82;97584.13;5074422;28;20181;-67
2021/10/11 00:08:18;;;;;;;13.30;9.87;;;;;;;7.18;82.26;97580.38;5075097;28;20182;-67
2021/10/11 00:10:43;;;;;;;15.43;10.17;;;;;;;6.96;82.82;97585.56;5074534;28;20221;-67
2021/10/11 00:13:09;;;;;;;15.23;9.27;;;;;;;6.89;83.64;97587.28;5055500;28;20633;-67
2021/10/11 00:15:34;;;;;;;15.87;9.87;;;;;;;6.89;83.89;97578.66;5073982;28;20656;-67
2021/10/11 00:18:00;;;;;;;16.17;9.90;;;;;;;6.97;83.38;97571.53;5074614;28;20187;-67
2021/10/11 00:20:25;;;;;;;13.27;9.97;;;;;;;6.89;83.56;97578.66;5073795;28;20177;-67
2021/10/11 00:22:51;;;;;;;15.43;10.03;;;;;;;7.00;83.07;97581.59;5074248;28;20185;-67
2021/10/11 00:25:16;;;;;;;14.00;10.10;;;;;;;7.03;83.40;97583.00;5073943;28;20646;-67
2021/10/11 00:27:42;;;;;;;14.60;10.63;;;;;;;6.96;84.03;97588.19;5074231;28;20180;-67
2021/10/11 00:30:10;;;;;;;16.70;10.73;;;;;;;6.91;84.26;97587.91;5074739;28;20185;-67
2021/10/11 00:32:35;;;;;;;18.87;11.67;;;;;;;6.80;85.03;97596.19;5073864;28;20689;-67
2021/10/11 00:35:01;;;;;;;17.57;11.20;;;;;;;6.59;86.01;97596.13;5074061;28;20391;-67
2021/10/11 00:37:27;;;;;;;16.90;11.07;;;;;;;6.45;87.04;97596.97;5072802;28;20181;-68
2021/10/11 00:39:52;;;;;;;16.07;11.23;;;;;;;6.46;87.01;97606.41;5055158;28;20264;-68
2021/10/11 00:42:17;;;;;;;17.40;11.00;;;;;;;6.32;87.37;97600.19;5073748;28;20197;-67
2021/10/11 00:44:43;;;;;;;14.53;10.57;;;;;;;6.21;88.24;97596.25;5073673;28;20184;-68
2021/10/11 00:47:08;;;;;;;18.80;11.33;;;;;;;6.20;88.85;97601.63;5073313;28;20224;-67
2021/10/11 00:49:34;;;;;;;16.03;10.63;;;;;;;6.30;87.72;97596.16;5073275;28;20173;-67
2021/10/11 00:51:59;;;;;;;16.70;10.47;;;;;;;6.29;87.79;97594.53;5055807;28;20189;-67
2021/10/11 00:54:26;;;;;;;15.87;10.77;;;;;;;6.38;86.89;97588.25;5073091;28;20190;-67
2021/10/11 00:56:52;;;;;;;17.30;11.37;;;;;;;6.43;86.33;97584.13;5073113;28;20187;-68
2021/10/11 00:59:17;;;;;;;17.50;11.37;;;;;;;6.44;85.93;97584.94;5073349;28;20181;-68
2021/10/11 01:01:43;;;;;;;17.83;10.90;;;;;;;6.24;87.19;97582.84;5073384;28;20181;-67
2021/10/11 01:04:08;;;;;;;15.80;11.07;;;;;;;6.08;88.14;97577.81;5073339;28;20185;-67
2021/10/11 01:06:39;;;;;;;15.40;10.87;;;;;;;5.97;88.77;97573.06;5072263;28;20220;-67
2021/10/11 01:09:07;;;;;;;14.40;10.93;;;;;;;6.19;87.37;97573.97;5072890;28;20243;-67
2021/10/11 01:11:33;;;;;;;13.83;11.13;;;;;;;5.81;89.51;97576.59;5072848;28;20363;-67
2021/10/11 01:13:59;;;;;;;16.07;10.90;;;;;;;5.70;90.53;97573.63;5073014;28;20211;-68
2021/10/11 01:16:25;;;;;;;15.43;10.73;;;;;;;5.95;89.49;97563.84;5072929;28;20264;-67
2021/10/11 01:18:51;;;;;;;16.07;11.97;;;;;;;5.85;89.54;97566.66;5073673;28;20224;-67
2021/10/11 01:21:17;;;;;;;16.53;11.67;;;;;;;5.97;89.06;97560.03;5072869;28;20181;-67
2021/10/11 01:23:42;;;;;;;18.33;11.57;;;;;;;5.97;89.05;97547.03;5072987;28;20630;-67
2021/10/11 01:26:07;;;;;;;15.13;10.07;;;;;;;5.90;89.16;97547.94;5072740;28;20185;-67
2021/10/11 01:28:33;;;;;;;16.20;11.10;;;;;;;6.01;89.03;97548.31;5055055;28;20551;-67
2021/10/11 01:30:59;;;;;;;25.37;15.43;;;;;;;6.04;88.42;97534.94;5072985;28;20238;-67
2021/10/11 01:33:24;;;;;;;23.53;14.17;;;;;;;5.89;89.06;97536.72;5072446;28;20250;-68
2021/10/11 01:35:49;;;;;;;22.03;13.57;;;;;;;5.83;88.88;97553.03;5072964;28;20186;-67
2021/10/11 01:38:15;;;;;;;21.50;12.53;;;;;;;5.66;90.14;97556.75;5072896;28;20708;-67
2021/10/11 01:40:41;;;;;;;20.87;11.97;;;;;;;5.75;89.66;97553.09;5072744;28;20188;-67
2021/10/11 01:43:08;;;;;;;22.40;13.10;;;;;;;5.72;89.49;97548.25;5072402;28;20271;-68
2021/10/11 01:45:34;;;;;;;26.60;13.30;;;;;;;5.82;88.99;97546.19;5072532;28;20233;-68
2021/10/11 01:48:00;;;;;;;30.50;14.90;;;;;;;5.78;88.79;97539.75;5072579;28;20246;-68
2021/10/11 01:50:26;;;;;;;31.13;14.07;;;;;;;5.71;89.22;97549.22;5071766;28;20173;-68
2021/10/11 01:52:52;;;;;;;26.27;14.17;;;;;;;5.61;89.43;97552.09;5071744;28;20188;-67
2021/10/11 01:55:17;;;;;;;28.77;13.23;;;;;;;5.57;89.67;97557.81;5072113;28;20239;-67
2021/10/11 01:57:43;;;;;;;22.03;13.90;;;;;;;5.53;90.14;97553.94;5072324;28;20586;-68
2021/10/11 02:00:09;;;;;;;25.13;13.43;;;;;;;5.61;89.65;97559.06;5072530;28;20591;-67
2021/10/11 02:02:35;;;;;;;20.27;12.83;;;;;;;5.56;89.74;97545.81;5072205;28;20185;-67
2021/10/11 02:05:00;;;;;;;20.03;11.97;;;;;;;5.70;88.79;97548.41;5072533;28;20264;-67
2021/10/11 02:07:26;;;;;;;17.97;12.07;;;;;;;5.85;88.34;97551.06;5072147;28;20709;-67
2021/10/11 02:09:51;;;;;;;21.83;12.00;;;;;;;5.87;87.81;97541.28;5072073;28;20579;-67
2021/10/11 02:12:17;;;;;;;21.67;12.10;;;;;;;5.70;88.36;97539.81;5072008;28;20196;-67
2021/10/11 02:14:42;;;;;;;20.20;12.90;;;;;;;5.76;87.77;97544.31;5071459;28;20201;-67
2021/10/11 02:17:08;;;;;;;18.57;11.27;;;;;;;5.64;88.05;97546.53;5071925;28;20233;-67
2021/10/11 02:19:33;;;;;;;16.33;11.30;;;;;;;5.41;89.89;97538.75;5072298;28;20177;-67
2021/10/11 02:21:59;;;;;;;19.60;11.10;;;;;;;5.64;89.13;97536.13;5072140;28;20586;-67
2021/10/11 02:24:24;;;;;;;19.57;11.67;;;;;;;5.61;89.36;97536.50;5071621;28;20181;-68
2021/10/11 02:26:49;;;;;;;15.43;10.80;;;;;;;5.62;89.07;97527.72;5071837;28;20181;-67
2021/10/11 02:29:15;;;;;;;18.50;11.53;;;;;;;5.50;89.82;97520.50;5072139;28;20658;-67
2021/10/11 02:31:40;;;;;;;18.40;11.17;;;;;;;5.56;89.03;97518.00;5071795;28;20220;-67
2021/10/11 02:34:05;;;;;;;16.93;11.80;;;;;;;5.55;89.21;97516.38;5072114;28;20228;-67
2021/10/11 02:36:31;;;;;;;15.63;10.40;;;;;;;5.31;90.02;97522.59;5071637;28;20224;-67
2021/10/11 02:38:56;;;;;;;13.70;10.20;;;;;;;5.34;89.98;97513.66;5072427;28;20174;-67
2021/10/11 02:41:23;;;;;;;16.30;10.87;;;;;;;5.49;89.22;97509.28;5054246;28;20192;-67
2021/10/11 02:43:48;;;;;;;18.67;11.33;;;;;;;5.37;89.94;97508.91;5054331;28;20512;-67
2021/10/11 02:46:14;;;;;;;18.10;10.67;;;;;;;5.41;90.07;97511.94;5071348;28;20181;-67
2021/10/11 02:48:39;;;;;;;18.47;11.13;;;;;;;5.49;89.42;97511.09;5072411;28;20186;-67
2021/10/11 02:51:05;;;;;;;14.07;10.60;;;;;;;5.28;90.28;97509.16;5053950;28;20184;-67
2021/10/11 02:53:30;;;;;;;16.20;10.57;;;;;;;5.17;90.85;97514.78;5071231;28;20314;-68
2021/10/11 02:55:55;;;;;;;17.73;10.87;;;;;;;5.31;90.19;97512.19;5053719;28;20192;-68
2021/10/11 02:58:22;;;;;;;17.30;10.87;;;;;;;5.43;88.53;97518.59;5053852;28;20173;-68
2021/10/11 03:00:48;;;;;;;18.90;11.20;;;;;;;5.15;90.21;97516.72;5072863;28;20182;-67
2021/10/11 03:03:13;;;;;;;15.90;11.17;;;;;;;5.22;90.19;97521.06;5057464;28;20549;-67
2021/10/11 03:05:38;;;;;;;18.73;10.63;;;;;;;5.19;89.98;97524.00;5075672;28;20209;-67
2021/10/11 03:08:04;;;;;;;13.43;10.30;;;;;;;5.11;90.68;97523.25;5076149;28;20196;-67
2021/10/11 03:10:29;;;;;;;17.97;11.03;;;;;;;5.07;91.22;97520.19;5075064;28;20585;-67
2021/10/11 03:12:54;;;;;;;20.10;11.77;;;;;;;5.00;91.32;97522.69;5057048;28;20264;-68
2021/10/11 03:15:20;;;;;;;17.70;11.70;;;;;;;5.01;91.59;97516.47;5075506;28;20215;-67
2021/10/11 03:17:45;;;;;;;15.03;11.50;;;;;;;5.01;91.54;97519.09;5075425;28;20188;-68
2021/10/11 03:20:11;;;;;;;18.43;11.13;;;;;;;5.18;90.36;97513.78;5057224;28;20239;-67
2021/10/11 03:22:36;;;;;;;16.17;10.90;;;;;;;5.33;89.41;97504.25;5056782;28;20189;-67
2021/10/11 03:25:02;;;;;;;18.00;11.53;;;;;;;5.22;89.56;97509.84;5074862;28;20181;-67
2021/10/11 03:27:27;;;;;;;16.00;10.43;;;;;;;5.26;90.14;97506.72;5057026;28;20185;-67
2021/10/11 03:29:53;;;;;;;18.70;11.40;;;;;;;5.12;90.76;97504.09;5074994;28;20634;-67
2021/10/11 03:32:18;;;;;;;15.13;10.83;;;;;;;5.16;91.34;97510.56;5075082;28;20243;-67
2021/10/11 03:34:43;;;;;;;15.60;11.83;;;;;;;5.09;91.87;97507.03;5057295;28;20228;-67
2021/10/11 03:37:09;;;;;;;18.90;11.73;;;;;;;5.28;91.46;97512.56;5075141;28;20185;-67
2021/10/11 03:39:34;;;;;;;17.53;11.27;;;;;;;5.35;90.38;97504.88;5056884;28;20226;-67
2021/10/11 03:42:00;;;;;;;17.63;12.33;;;;;;;5.14;91.39;97504.72;5074568;28;20189;-67
2021/10/11 03:44:25;;;;;;;17.10;11.27;;;;;;;5.09;91.43;97504.44;5056603;28;20213;-67
2021/10/11 03:46:50;;;;;;;16.37;11.50;;;;;;;5.28;90.80;97499.56;5074990;28;20653;-67
2021/10/11 03:49:16;;;;;;;20.60;10.67;;;;;;;5.11;90.99;97487.69;5074841;28;20189;-67
2021/10/11 03:51:41;;;;;;;21.60;12.03;;;;;;;5.21;90.77;97492.66;5056588;28;20193;-67
2021/10/11 03:54:07;;;;;;;18.30;11.83;;;;;;;5.38;89.32;97491.53;5074364;28;20197;-67
2021/10/11 03:56:32;;;;;;;17.50;12.17;;;;;;;5.29;89.64;97493.41;5074253;28;20178;-67
2021/10/11 03:58:58;;;;;;;18.03;11.97;;;;;;;5.17;89.47;97488.78;5074280;28;20197;-67
2021/10/11 04:01:23;;;;;;;18.13;11.27;;;;;;;5.02;90.31;97481.75;5074435;28;20527;-67
2021/10/11 04:03:49;;;;;;;16.10;11.47;;;;;;;4.86;90.74;97476.66;5056738;28;20189;-67
2021/10/11 04:06:16;;;;;;;19.00;11.23;;;;;;;4.98;89.66;97477.88;5074284;28;20177;-67
2021/10/11 04:08:44;;;;;;;16.10;10.93;;;;;;;4.73;90.42;97471.25;5074244;28;20675;-68
2021/10/11 04:11:11;;;;;;;20.30;11.53;;;;;;;5.02;89.77;97471.34;5044505;28;20216;-67
2021/10/11 04:13:38;;;;;;;18.30;11.70;;;;;;;4.78;89.88;97468.94;5054925;28;20213;-67
2021/10/11 04:16:05;;;;;;;32.70;11.87;;;;;;;4.71;90.79;97475.00;5074316;28;20216;-68
2021/10/11 04:18:31;;;;;;;20.37;12.07;;;;;;;4.86;90.48;97483.66;5074763;28;20204;-67
2021/10/11 04:20:56;;;;;;;17.73;11.93;;;;;;;4.72;91.57;97480.03;5074397;28;20174;-67
2021/10/11 04:23:22;;;;;;;16.90;11.50;;;;;;;4.78;90.98;97488.91;5074179;28;20212;-67
2021/10/11 04:25:47;;;;;;;15.27;10.73;;;;;;;4.79;90.02;97490.53;5074394;28;20181;-67
2021/10/11 04:28:15;;;;;;;16.67;10.70;;;;;;;4.66;89.31;97492.88;5055993;28;20185;-67
2021/10/11 04:30:41;;;;;;;15.37;11.23;;;;;;;4.60;88.09;97486.59;5074498;28;20184;-67
2021/10/11 04:33:07;;;;;;;13.33;10.13;;;;;;;4.17;90.90;97480.97;5074207;28;20200;-67
2021/10/11 04:35:33;;;;;;;13.87;10.67;;;;;;;4.39;89.77;97483.78;5073527;28;20209;-67
2021/10/11 04:37:58;;;;;;;16.83;10.50;;;;;;;4.25;90.88;97489.69;5056356;28;20242;-67
2021/10/11 04:40:24;;;;;;;21.10;13.10;;;;;;;3.96;92.62;97498.06;5074156;28;20189;-67
2021/10/11 04:42:49;;;;;;;23.00;12.63;;;;;;;4.24;91.80;97501.84;5073852;28;20193;-67
2021/10/11 04:45:14;;;;;;;21.27;13.53;;;;;;;4.21;93.46;97504.78;5073397;28;20545;-67
2021/10/11 04:47:40;;;;;;;20.57;13.40;;;;;;;4.42;93.26;97505.00;5074181;28;20838;-68
2021/10/11 04:50:06;;;;;;;19.30;13.20;;;;;;;4.49;93.45;97510.34;5073823;28;20183;-68
2021/10/11 04:52:32;;;;;;;19.07;12.47;;;;;;;4.43;93.99;97516.19;5065445;28;20293;-67
2021/10/11 04:54:58;;;;;;;20.73;13.33;;;;;;;4.38;95.58;97518.50;5073721;28;20201;-67
2021/10/11 04:57:23;;;;;;;20.43;13.40;;;;;;;4.36;95.88;97510.88;5072559;28;20190;-67
2021/10/11 04:59:49;;;;;;;17.80;12.70;;;;;;;4.43;95.88;97504.03;5073399;28;20185;-67
2021/10/11 05:02:14;;;;;;;20.80;14.13;;;;;;;4.63;94.61;97506.19;5055813;28;20178;-67
2021/10/11 05:04:39;;;;;;;18.40;12.47;;;;;;;4.73;93.90;97505.00;5073495;28;20189;-67
2021/10/11 05:07:05;;;;;;;20.43;12.70;;;;;;;4.64;95.05;97506.03;5073161;28;20600;-67
2021/10/11 05:09:30;;;;;;;26.10;14.27;;;;;;;4.78;94.37;97502.72;5072587;28;20545;-67
2021/10/11 05:11:56;;;;;;;21.73;14.17;;;;;;;4.87;92.48;97501.66;5055072;28;20689;-67
2021/10/11 05:14:21;;;;;;;21.70;13.80;;;;;;;4.86;92.61;97494.03;5072957;28;20228;-67
2021/10/11 05:16:47;;;;;;;20.37;13.80;;;;;;;4.69;93.36;97508.91;5055108;28;20186;-67
2021/10/11 05:19:13;;;;;;;21.57;14.17;;;;;;;4.58;93.75;97501.50;5072911;28;20173;-67
2021/10/11 05:21:38;;;;;;;20.37;13.13;;;;;;;4.76;93.66;97501.25;5072609;28;20183;-67
2021/10/11 05:24:04;;;;;;;20.93;13.43;;;;;;;4.69;93.52;97505.50;5073063;28;20177;-67
2021/10/11 05:26:31;;;;;;;28.27;15.53;;;;;;;4.74;93.92;97508.41;5073020;28;20291;-67
2021/10/11 05:28:57;;;;;;;33.40;17.73;;;;;;;4.69;94.53;97523.69;5055489;28;20209;-67
2021/10/11 05:31:22;;;;;;;28.43;16.63;;;;;;;4.79;94.33;97530.28;5072627;28;20188;-68
2021/10/11 05:33:48;;;;;;;25.37;16.27;;;;;;;4.81;94.36;97545.69;5072944;28;20201;-67
2021/10/11 05:36:13;;;;;;;19.73;14.63;;;;;;;5.02;93.55;97544.09;5054419;28;20192;-67
2021/10/11 05:38:39;;;;;;;23.67;13.67;;;;;;;4.75;94.93;97539.38;5069181;28;20177;-67
2021/10/11 05:41:04;;;;;;;21.70;12.80;;;;;;;4.74;95.45;97532.56;5072620;28;20190;-67
2021/10/11 05:43:29;;;;;;;22.00;14.03;;;;;;;4.87;94.28;97526.81;5072944;28;20185;-67
2021/10/11 05:45:55;;;;;;;23.70;13.47;;;;;;;4.84;93.77;97527.19;5072672;28;20189;-67
2021/10/11 05:48:20;;;;;;;19.93;13.03;;;;;;;4.88;92.21;97531.03;5072460;28;20243;-67
2021/10/11 05:50:46;;;;;;;19.70;12.07;;;;;;;4.98;91.91;97527.25;5071527;28;20642;-67
2021/10/11 05:53:12;;;;;;;26.30;12.63;;;;;;;4.99;91.66;97518.47;5070018;28;20204;-67
2021/10/11 05:55:38;;;;;;;19.70;11.83;;;;;;;4.90;92.45;97521.31;5063962;28;20206;-67
2021/10/11 05:58:04;;;;;;;21.20;12.70;;;;;;;4.95;92.73;97527.59;5066776;28;20256;-67
2021/10/11 06:00:29;;;;;;;17.17;11.83;;;;;;;5.12;92.39;97530.88;5071810;28;20687;-67
2021/10/11 06:02:55;;;;;;;18.00;12.37;;;;;;;5.30;91.76;97528.78;5072113;28;20184;-67
2021/10/11 06:05:20;;;;;;;21.50;12.83;;;;;;;5.39;90.89;97539.94;5071764;28;20260;-67
2021/10/11 06:07:45;;;;;;;17.23;12.17;;;;;;;5.27;92.47;97547.34;5072196;28;20634;-67
2021/10/11 06:10:11;;;;;;;18.23;12.57;;;;;;;5.58;91.93;97551.63;5072170;28;20253;-67
2021/10/11 06:12:36;;;;;;;21.40;12.77;;;;;;;5.93;91.42;97537.16;5072383;28;20224;-68
2021/10/11 06:15:03;;;;;;;26.27;12.50;;;;;;;6.07;90.09;97550.22;5071793;28;20201;-68
2021/10/11 06:17:29;;;;;;;18.97;13.00;;;;;;;6.19;89.17;97550.53;5037744;28;20209;-68
2021/10/11 06:19:55;;;;;;;20.53;12.47;;;;;;;6.39;87.38;97548.22;5071434;28;20181;-68
2021/10/11 06:22:20;;;;;;;16.47;11.47;;;;;;;6.56;86.29;97544.41;5071667;28;20181;-67
2021/10/11 06:24:45;;;;;;;18.10;11.77;;;;;;;6.69;85.69;97549.75;5072059;28;20177;-67
2021/10/11 06:27:11;;;;;;;20.83;11.97;;;;;;;6.84;84.43;97553.16;5072471;28;20190;-68
2021/10/11 06:29:36;;;;;;;17.27;10.37;;;;;;;7.01;83.53;97553.75;5054232;28;20177;-68
2021/10/11 06:32:02;;;;;;;15.63;11.33;;;;;;;6.97;82.82;97555.91;5070679;28;20181;-69
2021/10/11 06:34:27;;;;;;;17.97;11.40;;;;;;;6.88;83.50;97562.22;5052885;28;20534;-66
2021/10/11 06:36:53;;;;;;;18.23;11.13;;;;;;;7.14;82.40;97573.91;5075591;28;20587;-66
2021/10/11 06:39:18;;;;;;;16.50;10.97;;;;;;;7.03;82.11;97570.78;5075984;28;20184;-66
2021/10/11 06:41:44;;;;;;;15.77;10.80;;;;;;;7.07;81.79;97569.47;5076135;28;20252;-67
2021/10/11 06:44:09;;;;;;;15.03;10.73;;;;;;;7.04;82.01;97574.22;5075629;28;20283;-67
2021/10/11 06:46:34;;;;;;;16.37;11.40;;;;;;;7.17;81.76;97574.34;5075437;28;20189;-68
2021/10/11 06:49:00;;;;;;;15.67;10.43;;;;;;;7.29;81.22;97566.84;5075387;28;20189;-68
2021/10/11 06:51:25;;;;;;;17.10;10.87;;;;;;;7.52;79.90;97570.06;5074848;28;20189;-67
2021/10/11 06:53:51;;;;;;;16.43;10.60;;;;;;;7.36;79.98;97555.47;5075223;28;20342;-67
2021/10/11 06:56:16;;;;;;;14.53;10.73;;;;;;;7.41;80.75;97562.75;5074922;28;20238;-67
2021/10/11 06:58:41;;;;;;;20.10;10.67;;;;;;;7.64;79.54;97563.34;5073077;28;20177;-67
2021/10/11 07:01:07;;;;;;;13.93;9.77;;;;;;;7.68;78.95;97564.59;5069171;28;20568;-67
2021/10/11 07:03:33;;;;;;;14.63;10.17;;;;;;;7.74;77.83;97569.06;5057134;28;20181;-68
2021/10/11 07:06:06;;;;;;;17.10;10.33;;;;;;;7.87;75.64;97576.97;5074500;28;20184;-67
2021/10/11 07:08:33;;;;;;;12.60;9.77;;;;;;;7.85;75.39;97573.75;5075287;28;20675;-67
2021/10/11 07:10:59;;;;;;;13.20;9.77;;;;;;;7.75;75.71;97575.88;5074623;28;20685;-67
2021/10/11 07:13:25;;;;;;;15.23;9.90;;;;;;;7.76;75.34;97577.47;5057105;28;20197;-68
2021/10/11 07:15:51;;;;;;;13.37;9.40;;;;;;;7.90;75.05;97581.00;5075150;28;20196;-68
2021/10/11 07:18:17;;;;;;;15.93;9.70;;;;;;;7.96;75.15;97587.28;5066591;28;20174;-67
2021/10/11 07:20:44;;;;;;;15.53;9.83;;;;;;;8.14;74.62;97583.16;5067894;28;20312;-67
2021/10/11 07:23:13;;;;;;;14.60;9.60;;;;;;;8.31;73.95;97586.31;5075134;28;20711;-67
2021/10/11 07:25:40;;;;;;;13.40;9.50;;;;;;;8.33;74.34;97589.56;5057235;28;20622;-67
2021/10/11 07:28:06;;;;;;;13.17;8.97;;;;;;;8.60;73.16;97600.94;5075393;28;20186;-67
2021/10/11 07:30:31;;;;;;;14.47;10.27;;;;;;;8.62;72.91;97596.34;5074704;28;20675;-67
2021/10/11 07:32:57;;;;;;;14.10;10.57;;;;;;;8.70;73.03;97593.53;5075130;28;20272;-67
2021/10/11 07:35:22;;;;;;;16.83;10.53;;;;;;;8.64;73.66;97595.13;5075424;28;20189;-67
2021/10/11 07:37:48;;;;;;;16.13;10.47;;;;;;;8.93;72.27;97588.00;5075570;28;20186;-67
2021/10/11 07:40:14;;;;;;;15.40;9.57;;;;;;;8.84;72.92;97597.03;5059835;28;20658;-67
2021/10/11 07:42:39;;;;;;;15.73;10.20;;;;;;;8.88;73.27;97599.06;5075011;28;20201;-67
2021/10/11 07:45:04;;;;;;;17.60;10.40;;;;;;;9.06;72.82;97599.34;5074563;28;20181;-68
2021/10/11 07:47:30;;;;;;;17.10;10.33;;;;;;;9.15;72.33;97607.78;5073249;28;20549;-67
2021/10/11 07:49:55;;;;;;;17.47;10.33;;;;;;;9.38;71.96;97613.50;5056538;28;20178;-67
2021/10/11 07:52:21;;;;;;;15.30;9.87;;;;;;;9.31;72.08;97614.47;5074096;28;20181;-67
2021/10/11 07:54:46;;;;;;;13.80;10.80;;;;;;;9.55;71.77;97619.16;5074264;28;20208;-67
2021/10/11 07:57:11;;;;;;;14.43;10.00;;;;;;;9.73;71.09;97615.94;5056280;28;20174;-67
2021/10/11 07:59:37;;;;;;;14.23;10.53;;;;;;;9.94;70.93;97616.56;5073772;28;20642;-67
2021/10/11 08:02:02;;;;;;;13.87;9.90;;;;;;;10.08;70.27;97624.44;5056547;28;20259;-67
2021/10/11 08:04:28;;;;;;;15.23;10.03;;;;;;;10.40;69.49;97623.59;5074386;28;20189;-67
2021/10/11 08:06:53;;;;;;;15.73;10.77;;;;;;;10.57;68.66;97614.28;5074571;28;20537;-67
2021/10/11 08:09:19;;;;;;;15.17;10.03;;;;;;;10.66;69.26;97612.25;5056000;28;20185;-67
2021/10/11 08:11:44;;;;;;;16.63;10.03;;;;;;;10.72;68.59;97622.72;5052247;28;20221;-68
2021/10/11 08:14:11;;;;;;;14.47;10.07;;;;;;;10.93;67.43;97620.81;5053891;28;20627;-67
2021/10/11 08:16:38;;;;;;;16.87;10.73;;;;;;;10.66;67.74;97620.91;5044587;28;20202;-67
2021/10/11 08:19:04;;;;;;;14.40;9.83;;;;;;;10.63;67.79;97617.91;5046687;28;20212;-68
2021/10/11 08:21:30;;;;;;;14.17;10.03;;;;;;;10.90;67.09;97624.69;5052459;28;20733;-68
2021/10/11 08:23:57;;;;;;;11.97;9.17;;;;;;;10.84;67.27;97609.78;5054452;28;20178;-68
2021/10/11 08:26:23;;;;;;;16.10;10.07;;;;;;;10.97;67.28;97611.53;5054056;28;20186;-68
2021/10/11 08:28:48;;;;;;;12.43;9.63;;;;;;;11.23;65.91;97614.84;5054470;28;20186;-68
2021/10/11 08:31:13;;;;;;;17.33;10.50;;;;;;;11.35;65.10;97624.69;5054567;28;20181;-68
2021/10/11 08:33:40;;;;;;;13.70;9.17;;;;;;;11.33;65.88;97622.25;5054024;28;20276;-67
2021/10/11 08:36:05;;;;;;;12.93;9.07;;;;;;;11.39;65.88;97617.97;5054234;28;20232;-67
2021/10/11 08:38:31;;;;;;;16.93;10.00;;;;;;;11.44;65.59;97616.31;5053692;28;20182;-67
2021/10/11 08:40:57;;;;;;;13.03;9.13;;;;;;;11.39;65.38;97613.53;5053691;28;20194;-68
2021/10/11 08:43:23;;;;;;;14.03;10.03;;;;;;;11.58;65.20;97627.56;5053590;28;20197;-68
2021/10/11 08:45:49;;;;;;;13.00;9.17;;;;;;;11.81;65.08;97625.22;5053352;28;20198;-67
2021/10/11 08:48:15;;;;;;;13.33;10.13;;;;;;;11.27;66.90;97620.47;5053152;28;20643;-67
2021/10/11 08:50:40;;;;;;;15.17;10.97;;;;;;;11.13;68.00;97619.75;5053044;28;20262;-67
2021/10/11 08:53:07;;;;;;;12.40;9.60;;;;;;;11.71;66.76;97619.59;5053225;28;20223;-67
2021/10/11 08:55:33;;;;;;;11.70;8.83;;;;;;;11.39;66.71;97615.34;5052903;28;20190;-68
2021/10/11 08:58:04;;;;;;;11.83;8.07;;;;;;;11.74;65.21;97608.69;5052718;28;20360;-68
2021/10/11 09:00:34;;;;;;;12.20;8.43;;;;;;;11.99;65.38;97613.94;5053318;28;20321;-69
2021/10/11 09:03:01;;;;;;;11.63;8.50;;;;;;;12.25;64.16;97610.31;5052806;28;20190;-69
2021/10/11 09:05:36;;;;;;;13.93;8.53;;;;;;;12.51;63.72;97612.66;5052820;28;20197;-69
2021/10/11 09:08:06;;;;;;;16.03;10.43;;;;;;;12.67;62.86;97614.72;5052939;28;20185;-69
2021/10/11 09:10:47;;;;;;;12.43;8.77;;;;;;;12.78;62.03;97613.19;5051394;28;20248;-69
2021/10/11 09:13:12;;;;;;;13.33;8.83;;;;;;;12.69;62.47;97609.25;5044821;28;20304;-69
2021/10/11 09:15:38;;;;;;;12.37;8.83;;;;;;;12.61;62.67;97606.88;5052311;28;20643;-69
2021/10/11 09:18:05;;;;;;;12.70;8.97;;;;;;;12.72;62.57;97611.41;5051194;28;20631;-69
2021/10/11 09:20:31;;;;;;;13.80;8.63;;;;;;;12.43;63.33;97605.03;5052610;28;20273;-69
2021/10/11 09:23:01;;;;;;;19.40;9.73;;;;;;;12.72;61.88;97606.16;5052033;28;20182;-69
2021/10/11 09:25:37;;;;;;;13.53;9.63;;;;;;;12.30;62.74;97606.00;5049039;28;20225;-68
2021/10/11 09:28:03;;;;;;;12.70;9.00;;;;;;;12.12;62.89;97602.53;5052785;28;20265;-69
2021/10/11 09:30:35;;;;;;;12.00;8.77;;;;;;;12.01;63.33;97611.91;5051484;28;20538;-69
2021/10/11 09:33:16;;;;;;;13.40;8.80;;;;;;;12.19;62.16;97598.03;5052933;28;20174;-69
2021/10/11 09:35:43;;;;;;;13.13;9.60;;;;;;;12.33;63.28;97602.13;5045565;28;20286;-70
2021/10/11 09:38:20;;;;;;;14.67;9.17;;;;;;;12.03;64.60;97610.69;5052573;28;20186;-71
2021/10/11 09:40:47;;;;;;;13.03;9.13;;;;;;;12.19;63.38;97613.78;5046194;28;20217;-70
2021/10/11 09:43:18;;;;;;;15.47;9.77;;;;;;;12.36;63.20;97613.03;5052746;28;20307;-72
2021/10/11 09:45:44;;;;;;;12.93;9.47;;;;;;;12.31;63.42;97612.06;5047526;28;20316;-71
2021/10/11 09:48:10;;;;;;;12.87;8.90;;;;;;;12.01;63.62;97611.91;5051407;28;20678;-71
2021/10/11 09:50:37;;;;;;;13.63;9.57;;;;;;;11.91;63.85;97603.72;5051910;28;20190;-69
2021/10/11 09:53:03;;;;;;;15.30;9.60;;;;;;;11.72;66.38;97612.50;5051945;28;20643;-71
2021/10/11 09:55:29;;;;;;;12.53;9.50;;;;;;;11.43;66.37;97608.66;5050825;28;20182;-71
2021/10/11 09:57:56;;;;;;;12.40;9.30;;;;;;;11.43;66.61;97611.28;5052302;28;20188;-73
2021/10/11 10:00:22;;;;;;;14.23;10.20;;;;;;;11.18;69.08;97604.19;5052169;28;20225;-71
2021/10/11 10:02:48;;;;;;;14.83;9.30;;;;;;;10.78;70.71;97598.28;5051757;28;20331;-71
2021/10/11 10:05:36;;;;;;;14.00;10.17;;;;;;;10.98;69.85;97600.81;5050026;28;20182;-72
2021/10/11 10:08:06;;;;;;;13.43;9.30;;;;;;;11.51;69.28;97592.66;5042592;28;20193;-70
2021/10/11 10:10:33;;;;;;;17.10;9.77;;;;;;;11.61;69.29;97595.63;5056978;28;20304;-71
2021/10/11 10:12:59;;;;;;;11.50;9.63;;;;;;;11.82;68.46;97597.09;5072111;28;20185;-69
2021/10/11 10:15:36;;;;;;;15.47;9.57;;;;;;;11.34;69.22;97592.38;5072294;28;20535;-70
2021/10/11 10:18:06;;;;;;;13.57;9.50;;;;;;;11.28;69.91;97587.97;5071355;28;20185;-70
2021/10/11 10:20:33;;;;;;;15.40;10.43;;;;;;;11.34;69.77;97591.56;5072868;28;20193;-70
2021/10/11 10:22:59;;;;;;;16.50;9.97;;;;;;;11.37;69.71;97589.31;5072599;28;20177;-70
2021/10/11 10:25:26;;;;;;;14.17;9.47;;;;;;;11.78;68.63;97593.31;5054753;28;20593;-70
2021/10/11 10:27:54;;;;;;;14.27;9.60;;;;;;;12.18;67.32;97589.34;5054823;28;20189;-71
2021/10/11 10:30:25;;;;;;;15.23;9.80;;;;;;;12.07;67.36;97587.41;5072353;28;20323;-69
2021/10/11 10:32:59;;;;;;;13.70;9.23;;;;;;;12.00;67.94;97587.47;5072308;28;20673;-70
2021/10/11 10:35:28;;;;;;;13.00;10.40;;;;;;;11.89;68.41;97590.00;5072195;28;20201;-69
2021/10/11 10:37:54;;;;;;;15.20;9.77;;;;;;;11.83;67.58;97594.28;5072464;28;20234;-72
2021/10/11 10:40:24;;;;;;;11.77;8.83;;;;;;;12.36;65.81;97596.44;5069655;28;20189;-71
2021/10/11 10:42:49;;;;;;;13.77;10.50;;;;;;;11.94;66.05;97598.84;5072395;28;20173;-71
2021/10/11 10:45:21;;;;;;;12.37;9.37;;;;;;;11.94;65.58;97595.41;5072368;28;20185;-71
2021/10/11 10:47:48;;;;;;;15.40;10.30;;;;;;;12.13;66.12;97591.00;5071653;28;20192;-71
2021/10/11 10:50:22;;;;;;;13.07;9.07;;;;;;;12.10;65.63;97589.59;5054426;28;20205;-71
2021/10/11 10:52:51;;;;;;;12.67;9.50;;;;;;;12.11;64.52;97575.44;5056459;28;20501;-71
2021/10/11 10:55:16;;;;;;;15.57;9.70;;;;;;;12.27;64.51;97568.81;5071217;28;20197;-70
2021/10/11 10:57:43;;;;;;;14.67;9.40;;;;;;;12.23;64.53;97578.97;5072272;28;20192;-71
2021/10/11 11:00:18;;;;;;;13.67;10.50;;;;;;;12.40;63.87;97571.31;5071854;28;20181;-71
2021/10/11 11:02:45;;;;;;;15.77;10.17;;;;;;;12.52;63.39;97568.78;5071544;28;20189;-72
2021/10/11 11:05:11;;;;;;;15.67;10.30;;;;;;;12.82;61.78;97566.97;5071877;28;20178;-71
2021/10/11 11:07:38;;;;;;;14.57;10.00;;;;;;;12.53;62.05;97560.66;5071895;28;20242;-71
2021/10/11 11:10:13;;;;;;;13.57;10.13;;;;;;;12.32;62.18;97554.00;5071571;28;20185;-69
2021/10/11 11:12:41;;;;;;;14.80;9.93;;;;;;;12.38;62.32;97549.69;5071414;28;20233;-69
2021/10/11 11:15:21;;;;;;;15.63;10.03;;;;;;;12.30;63.14;97550.00;5071673;28;20212;-69
2021/10/11 11:17:49;;;;;;;20.30;10.30;;;;;;;12.74;62.22;97538.38;5071830;28;20165;-70
2021/10/11 11:20:18;;;;;;;13.63;9.70;;;;;;;12.83;60.57;97537.81;5071416;28;20630;-70